Darstellungsparameter: Aktuell verwendete Einstellungen:
Skalierung der Graphiken ... ?
xyx+y,   Skalierungsfaktor:      Skalierung: Modus: x, Faktor: 1
Darstellungszeitraum ... ?
Vom - - bis: - -   Zeitraum: 07.02.2022 - 07.02.2022
Min/Max/Avg-Anzeige ... ?
Zeige MMA aktuell
Zeige MMA Monat
Zeige MMA alles
Zeige --A aktuell
Zeige --A Monat
Zeige --A alles
Keine MMA-Anzeige
MMA:
Average (ber die Originaldaten)
MMA-Basis: 07.02.2022 - 07.02.2022
Quicknavigation für Darstellung... ?
Tage:      1T, 2T, 3T, 5T -1T -2T -3T -5T +1T +2T +3T +5T
Wochen: 1W, 2W, 3W -1W -2W -3W +1W +2W +3W
Monate: 1M, 3M, 6M -1M -3M -6M +1M +3M +6M
Jahre:    1J, 3J, 5J, 10J -1J -3J -5J -10J +1J +3J +5J +10J
Nutze für die Darstellung ... ?
Originaldaten oder Mittelwerte auf ...
Stundenbasis Tagesbasis Wochenbasis
Monatsbasis Jahresbasis      Datenbasis: Original-Daten
Darstellen als:
Statistik (Auto) Statistik J:M      Darstellung:
Zur Graphik,    zurück zur Übersicht aller Sensoren.
 
Tabellarische Datenbersicht: ?
 
Sensor: Nr:Datum:Temp:Abs-Feuchte:Windchill:Wind:
Aussen-T/F 1 07-02-2022 00:00:00 4.2 C 5.99 g/m*3 0.84 C 14.5 km/h
2 07-02-2022 00:05:00 4.3 C 5.97 g/m*3 1.89 C 9.7 km/h
3 07-02-2022 00:10:00 4.2 C 5.93 g/m*3 1.12 C 12.9 km/h
4 07-02-2022 00:15:00 4.3 C 5.9 g/m*3 0.97 C 14.5 km/h
5 07-02-2022 00:20:00 4.4 C 5.88 g/m*3 -0.64 C 29 km/h
6 07-02-2022 00:25:00 4.6 C 5.82 g/m*3 -0.38 C 29 km/h
7 07-02-2022 00:30:00 4.6 C 5.76 g/m*3 1.09 C 16.1 km/h
8 07-02-2022 00:35:00 4.6 C 5.69 g/m*3 1.09 C 16.1 km/h
9 07-02-2022 00:40:00 4.6 C 5.76 g/m*3 0.86 C 17.7 km/h
10 07-02-2022 00:45:00 4.6 C 5.69 g/m*3 0.45 C 20.9 km/h
11 07-02-2022 00:50:00 4.6 C 5.69 g/m*3 0.27 C 22.5 km/h
12 07-02-2022 00:55:00 4.6 C 5.62 g/m*3 0.86 C 17.7 km/h
13 07-02-2022 01:00:00 4.6 C 5.62 g/m*3 0.65 C 19.3 km/h
14 07-02-2022 01:05:00 4.6 C 5.62 g/m*3 1.34 C 14.5 km/h
15 07-02-2022 01:10:00 4.7 C 5.6 g/m*3 1.73 C 12.9 km/h
16 07-02-2022 01:15:00 4.7 C 5.66 g/m*3 0.99 C 17.7 km/h
17 07-02-2022 01:20:00 4.7 C 5.66 g/m*3 2.03 C 11.3 km/h
18 07-02-2022 01:25:00 4.8 C 5.63 g/m*3 0.19 C 25.7 km/h
19 07-02-2022 01:30:00 4.8 C 5.63 g/m*3 1.34 C 16.1 km/h
20 07-02-2022 01:35:00 4.8 C 5.63 g/m*3 2.15 C 11.3 km/h
21 07-02-2022 01:40:00 4.8 C 5.63 g/m*3 1.34 C 16.1 km/h
22 07-02-2022 01:45:00 4.8 C 5.5 g/m*3 0.9 C 19.3 km/h
23 07-02-2022 01:50:00 4.9 C 5.6 g/m*3 0.83 C 20.9 km/h
24 07-02-2022 01:55:00 4.9 C 5.47 g/m*3 1.24 C 17.7 km/h
25 07-02-2022 02:00:00 5 C 5.5 g/m*3 0.78 C 22.5 km/h
Sensor: Nr:Datum:Temp:Abs-Feuchte:Windchill:Wind:
Aussen-T/F 26 07-02-2022 02:05:00 5.1 C 5.54 g/m*3 0.58 C 25.7 km/h
27 07-02-2022 02:10:00 5.1 C 5.54 g/m*3 1.71 C 16.1 km/h
28 07-02-2022 02:15:00 5.1 C 5.54 g/m*3 1.71 C 16.1 km/h
29 07-02-2022 02:20:00 5.1 C 5.54 g/m*3 1.28 C 19.3 km/h
30 07-02-2022 02:25:00 5.2 C 5.58 g/m*3 0.7 C 25.7 km/h
31 07-02-2022 02:30:00 4.8 C 5.63 g/m*3 -0.26 C 30.6 km/h
32 07-02-2022 02:35:00 4.2 C 5.54 g/m*3 0.59 C 16.1 km/h
33 07-02-2022 02:40:00 3.9 C 5.56 g/m*3 0.22 C 16.1 km/h
34 07-02-2022 02:45:00 3.9 C 5.62 g/m*3 0.47 C 14.5 km/h
35 07-02-2022 02:50:00 4.1 C 5.7 g/m*3 -0.88 C 27.4 km/h
36 07-02-2022 02:55:00 3.8 C 5.58 g/m*3 -1.1 C 25.7 km/h
37 07-02-2022 03:00:00 3.4 C 5.5 g/m*3 -0.86 C 19.3 km/h
38 07-02-2022 03:05:00 3.2 C 5.48 g/m*3 0.99 C 8.1 km/h
39 07-02-2022 03:10:00 3 C 5.41 g/m*3 1.28 C 6.4 km/h
40 07-02-2022 03:15:00 2.8 C 5.34 g/m*3 2.8 C 4.8 km/h
41 07-02-2022 03:20:00 2.8 C 5.4 g/m*3 -0.59 C 12.9 km/h
42 07-02-2022 03:25:00 2.9 C 5.43 g/m*3 0.22 C 9.7 km/h
43 07-02-2022 03:30:00 2.8 C 5.4 g/m*3 2.8 C 4.8 km/h
44 07-02-2022 03:35:00 2.8 C 5.4 g/m*3 1.05 C 6.4 km/h
45 07-02-2022 03:40:00 2.8 C 5.4 g/m*3 0.52 C 8.1 km/h
46 07-02-2022 03:45:00 2.8 C 5.46 g/m*3 -0.26 C 11.3 km/h
47 07-02-2022 03:50:00 3 C 5.47 g/m*3 -0.34 C 12.9 km/h
48 07-02-2022 03:55:00 3.2 C 5.48 g/m*3 -0.39 C 14.5 km/h
49 07-02-2022 04:00:00 3.3 C 5.52 g/m*3 0.34 C 11.3 km/h
50 07-02-2022 04:05:00 3.4 C 5.5 g/m*3 -0.86 C 19.3 km/h
Sensor: Nr:Datum:Temp:Abs-Feuchte:Windchill:Wind:
Aussen-T/F 51 07-02-2022 04:10:00 3.5 C 5.53 g/m*3 -0.28 C 16.1 km/h
52 07-02-2022 04:15:00 3.5 C 5.47 g/m*3 0.27 C 12.9 km/h
53 07-02-2022 04:20:00 3.6 C 5.51 g/m*3 -1.83 C 30.6 km/h
54 07-02-2022 04:25:00 3.7 C 5.48 g/m*3 -0.48 C 19.3 km/h
55 07-02-2022 04:30:00 3.8 C 5.52 g/m*3 0.63 C 12.9 km/h
56 07-02-2022 04:35:00 3.9 C 5.56 g/m*3 -0.8 C 24.1 km/h
57 07-02-2022 04:40:00 3.9 C 5.56 g/m*3 -0.8 C 24.1 km/h
58 07-02-2022 04:45:00 3.9 C 5.56 g/m*3 -0.97 C 25.7 km/h
59 07-02-2022 04:50:00 3.8 C 5.52 g/m*3 0.35 C 14.5 km/h
60 07-02-2022 04:55:00 3.7 C 5.48 g/m*3 0.23 C 14.5 km/h
61 07-02-2022 05:00:00 3.7 C 5.48 g/m*3 0.23 C 14.5 km/h
62 07-02-2022 05:05:00 3.6 C 5.45 g/m*3 0.39 C 12.9 km/h
63 07-02-2022 05:10:00 3.6 C 5.45 g/m*3 -0.15 C 16.1 km/h
64 07-02-2022 05:15:00 3.6 C 5.39 g/m*3 0.39 C 12.9 km/h
65 07-02-2022 05:20:00 3.7 C 5.36 g/m*3 -0.03 C 16.1 km/h
66 07-02-2022 05:25:00 3.8 C 5.46 g/m*3 -0.36 C 19.3 km/h
67 07-02-2022 05:30:00 3.8 C 5.4 g/m*3 -0.14 C 17.7 km/h
68 07-02-2022 05:35:00 3.8 C 5.4 g/m*3 0.94 C 11.3 km/h
69 07-02-2022 05:40:00 3.8 C 5.4 g/m*3 0.94 C 11.3 km/h
70 07-02-2022 05:45:00 3.8 C 5.33 g/m*3 0.63 C 12.9 km/h
71 07-02-2022 05:50:00 3.8 C 5.33 g/m*3 0.1 C 16.1 km/h
72 07-02-2022 05:55:00 3.7 C 5.3 g/m*3 0.82 C 11.3 km/h
73 07-02-2022 06:00:00 3.7 C 5.3 g/m*3 0.82 C 11.3 km/h
74 07-02-2022 06:05:00 3.8 C 5.33 g/m*3 -0.56 C 20.9 km/h
75 07-02-2022 06:10:00 3.9 C 5.37 g/m*3 0.47 C 14.5 km/h
Sensor: Nr:Datum:Temp:Abs-Feuchte:Windchill:Wind:
Aussen-T/F 76 07-02-2022 06:15:00 3.9 C 5.37 g/m*3 1.82 C 8.1 km/h
77 07-02-2022 06:20:00 3.8 C 5.33 g/m*3 0.94 C 11.3 km/h
78 07-02-2022 06:25:00 3.9 C 5.37 g/m*3 0.75 C 12.9 km/h
79 07-02-2022 06:30:00 3.9 C 5.37 g/m*3 2.32 C 6.4 km/h
80 07-02-2022 06:35:00 3.8 C 5.33 g/m*3 0.94 C 11.3 km/h
81 07-02-2022 06:40:00 3.9 C 5.37 g/m*3 1.41 C 9.7 km/h
82 07-02-2022 06:45:00 3.9 C 5.37 g/m*3 1.41 C 9.7 km/h
83 07-02-2022 06:50:00 4 C 5.4 g/m*3 0.34 C 16.1 km/h
84 07-02-2022 06:55:00 4.1 C 5.38 g/m*3 0.72 C 14.5 km/h
85 07-02-2022 07:00:00 4.2 C 5.35 g/m*3 1.43 C 11.3 km/h
86 07-02-2022 07:05:00 4.3 C 5.38 g/m*3 1.89 C 9.7 km/h
87 07-02-2022 07:10:00 4.3 C 5.38 g/m*3 1.89 C 9.7 km/h
88 07-02-2022 07:15:00 4.3 C 5.38 g/m*3 1.55 C 11.3 km/h
89 07-02-2022 07:20:00 4.4 C 5.42 g/m*3 2.01 C 9.7 km/h
90 07-02-2022 07:25:00 4.4 C 5.35 g/m*3 0.84 C 16.1 km/h
91 07-02-2022 07:30:00 4.5 C 5.39 g/m*3 0.96 C 16.1 km/h
92 07-02-2022 07:35:00 4.6 C 5.36 g/m*3 0.65 C 19.3 km/h
93 07-02-2022 07:40:00 4.6 C 5.36 g/m*3 1.61 C 12.9 km/h
94 07-02-2022 07:45:00 4.7 C 5.4 g/m*3 0.78 C 19.3 km/h
95 07-02-2022 07:50:00 4.7 C 5.4 g/m*3 1.46 C 14.5 km/h
96 07-02-2022 07:55:00 4.7 C 5.4 g/m*3 1.46 C 14.5 km/h
97 07-02-2022 08:00:00 4.8 C 5.43 g/m*3 1.85 C 12.9 km/h
98 07-02-2022 08:05:00 4.8 C 5.43 g/m*3 1.58 C 14.5 km/h
99 07-02-2022 08:10:00 4.8 C 5.43 g/m*3 2.15 C 11.3 km/h
100 07-02-2022 08:15:00 4.8 C 5.43 g/m*3 2.49 C 9.7 km/h
Sensor: Nr:Datum:Temp:Abs-Feuchte:Windchill:Wind:
Aussen-T/F 101 07-02-2022 08:20:00 4.8 C 5.43 g/m*3 1.85 C 12.9 km/h
102 07-02-2022 08:25:00 4.8 C 5.5 g/m*3 2.49 C 9.7 km/h
103 07-02-2022 08:30:00 4.8 C 5.43 g/m*3 2.15 C 11.3 km/h
104 07-02-2022 08:35:00 4.8 C 5.43 g/m*3 1.85 C 12.9 km/h
105 07-02-2022 08:40:00 4.8 C 5.43 g/m*3 2.49 C 9.7 km/h
106 07-02-2022 08:45:00 4.9 C 5.47 g/m*3 2.61 C 9.7 km/h
107 07-02-2022 08:50:00 4.9 C 5.47 g/m*3 2.61 C 9.7 km/h
108 07-02-2022 08:55:00 5 C 5.5 g/m*3 2.72 C 9.7 km/h
109 07-02-2022 09:00:00 5.1 C 5.54 g/m*3 1.71 C 16.1 km/h
110 07-02-2022 09:05:00 5.1 C 5.54 g/m*3 2.22 C 12.9 km/h
111 07-02-2022 09:10:00 5.1 C 5.54 g/m*3 2.22 C 12.9 km/h
112 07-02-2022 09:15:00 5.2 C 5.65 g/m*3 2.63 C 11.3 km/h
113 07-02-2022 09:20:00 5.2 C 5.65 g/m*3 2.63 C 11.3 km/h
114 07-02-2022 09:25:00 5.2 C 5.65 g/m*3 3.34 C 8.1 km/h
115 07-02-2022 09:30:00 5.2 C 5.65 g/m*3 2.34 C 12.9 km/h
116 07-02-2022 09:35:00 5.2 C 5.65 g/m*3 2.07 C 14.5 km/h
117 07-02-2022 09:40:00 5.3 C 5.61 g/m*3 3.46 C 8.1 km/h
118 07-02-2022 09:45:00 5.3 C 5.61 g/m*3 2.46 C 12.9 km/h
119 07-02-2022 09:50:00 5.4 C 5.65 g/m*3 2.87 C 11.3 km/h
120 07-02-2022 09:55:00 5.4 C 5.65 g/m*3 2.08 C 16.1 km/h
121 07-02-2022 10:00:00 5.5 C 5.69 g/m*3 2.44 C 14.5 km/h
122 07-02-2022 10:05:00 5.5 C 5.69 g/m*3 2.99 C 11.3 km/h
123 07-02-2022 10:10:00 5.5 C 5.69 g/m*3 3.32 C 9.7 km/h
124 07-02-2022 10:15:00 5.6 C 5.66 g/m*3 3.81 C 8.1 km/h
125 07-02-2022 10:20:00 5.6 C 5.73 g/m*3 5.6 C 4.8 km/h
Sensor: Nr:Datum:Temp:Abs-Feuchte:Windchill:Wind:
Aussen-T/F 126 07-02-2022 10:25:00 5.6 C 5.73 g/m*3 3.81 C 8.1 km/h
127 07-02-2022 10:30:00 5.6 C 5.73 g/m*3 2.33 C 16.1 km/h
128 07-02-2022 10:35:00 5.7 C 5.76 g/m*3 3.23 C 11.3 km/h
129 07-02-2022 10:40:00 5.7 C 5.76 g/m*3 3.56 C 9.7 km/h
130 07-02-2022 10:45:00 5.7 C 5.76 g/m*3 1.85 C 20.9 km/h
131 07-02-2022 10:50:00 5.8 C 5.73 g/m*3 3.36 C 11.3 km/h
132 07-02-2022 10:55:00 5.9 C 5.84 g/m*3 2.93 C 14.5 km/h
133 07-02-2022 11:00:00 6 C 5.81 g/m*3 2.82 C 16.1 km/h
134 07-02-2022 11:05:00 6 C 5.95 g/m*3 3.06 C 14.5 km/h
135 07-02-2022 11:10:00 5.8 C 5.87 g/m*3 2.81 C 14.5 km/h
136 07-02-2022 11:15:00 5.8 C 5.87 g/m*3 3.68 C 9.7 km/h
137 07-02-2022 11:20:00 5.8 C 5.87 g/m*3 2.81 C 14.5 km/h
138 07-02-2022 11:25:00 5.9 C 5.91 g/m*3 2.93 C 14.5 km/h
139 07-02-2022 11:30:00 6 C 5.88 g/m*3 3.31 C 12.9 km/h
140 07-02-2022 11:35:00 6.1 C 5.84 g/m*3 4.4 C 8.1 km/h
141 07-02-2022 11:40:00 6.2 C 5.88 g/m*3 4.15 C 9.7 km/h
142 07-02-2022 11:45:00 6.2 C 5.88 g/m*3 2.48 C 20.9 km/h
143 07-02-2022 11:50:00 6.3 C 5.92 g/m*3 3.68 C 12.9 km/h
144 07-02-2022 11:55:00 6.4 C 5.89 g/m*3 4.08 C 11.3 km/h
145 07-02-2022 12:00:00 6.4 C 5.89 g/m*3 4.39 C 9.7 km/h
146 07-02-2022 12:05:00 6.5 C 5.92 g/m*3 4.51 C 9.7 km/h
147 07-02-2022 12:10:00 6.5 C 5.85 g/m*3 3.23 C 17.7 km/h
148 07-02-2022 12:15:00 6.6 C 5.96 g/m*3 3.79 C 14.5 km/h
149 07-02-2022 12:20:00 6.7 C 5.93 g/m*3 4.75 C 9.7 km/h
150 07-02-2022 12:25:00 6.7 C 5.93 g/m*3 3.48 C 17.7 km/h
Sensor: Nr:Datum:Temp:Abs-Feuchte:Windchill:Wind:
Aussen-T/F 151 07-02-2022 12:30:00 6.7 C 6 g/m*3 3.48 C 17.7 km/h
152 07-02-2022 12:35:00 6.7 C 6 g/m*3 3.92 C 14.5 km/h
153 07-02-2022 12:40:00 6.7 C 6 g/m*3 4.17 C 12.9 km/h
154 07-02-2022 12:45:00 6.8 C 6.04 g/m*3 3.82 C 16.1 km/h
155 07-02-2022 12:50:00 6.8 C 5.97 g/m*3 4.04 C 14.5 km/h
156 07-02-2022 12:55:00 6.8 C 5.97 g/m*3 3.24 C 20.9 km/h
157 07-02-2022 13:00:00 6.8 C 5.97 g/m*3 3.82 C 16.1 km/h
158 07-02-2022 13:05:00 6.8 C 5.97 g/m*3 3.61 C 17.7 km/h
159 07-02-2022 13:10:00 6.8 C 5.97 g/m*3 3.07 C 22.5 km/h
160 07-02-2022 13:15:00 6.8 C 5.89 g/m*3 3.42 C 19.3 km/h
161 07-02-2022 13:20:00 6.8 C 5.89 g/m*3 3.61 C 17.7 km/h
162 07-02-2022 13:25:00 6.8 C 5.89 g/m*3 3.61 C 17.7 km/h
163 07-02-2022 13:30:00 6.8 C 5.89 g/m*3 4.04 C 14.5 km/h
164 07-02-2022 13:35:00 6.8 C 5.89 g/m*3 3.61 C 17.7 km/h
165 07-02-2022 13:40:00 6.8 C 5.97 g/m*3 4.04 C 14.5 km/h
166 07-02-2022 13:45:00 6.8 C 5.89 g/m*3 3.82 C 16.1 km/h
167 07-02-2022 13:50:00 6.8 C 5.97 g/m*3 4.04 C 14.5 km/h
168 07-02-2022 13:55:00 6.9 C 5.93 g/m*3 4.16 C 14.5 km/h
169 07-02-2022 14:00:00 6.9 C 6 g/m*3 4.41 C 12.9 km/h
170 07-02-2022 14:05:00 6.9 C 5.93 g/m*3 4.16 C 14.5 km/h
171 07-02-2022 14:10:00 6.9 C 5.93 g/m*3 4.41 C 12.9 km/h
172 07-02-2022 14:15:00 7 C 5.89 g/m*3 4.06 C 16.1 km/h
173 07-02-2022 14:20:00 7 C 5.81 g/m*3 3.86 C 17.7 km/h
174 07-02-2022 14:25:00 7.1 C 5.85 g/m*3 3.8 C 19.3 km/h
175 07-02-2022 14:30:00 7.1 C 5.77 g/m*3 4.19 C 16.1 km/h
Sensor: Nr:Datum:Temp:Abs-Feuchte:Windchill:Wind:
Aussen-T/F 176 07-02-2022 14:35:00 7.2 C 5.81 g/m*3 4.53 C 14.5 km/h
177 07-02-2022 14:40:00 7.2 C 5.81 g/m*3 4.53 C 14.5 km/h
178 07-02-2022 14:45:00 7.2 C 5.73 g/m*3 4.53 C 14.5 km/h
179 07-02-2022 14:50:00 7.2 C 5.81 g/m*3 4.77 C 12.9 km/h
180 07-02-2022 14:55:00 7.1 C 5.69 g/m*3 3.8 C 19.3 km/h
181 07-02-2022 15:00:00 7.2 C 5.81 g/m*3 5.04 C 11.3 km/h
182 07-02-2022 15:05:00 7.2 C 5.73 g/m*3 4.31 C 16.1 km/h
183 07-02-2022 15:10:00 7.2 C 5.73 g/m*3 4.31 C 16.1 km/h
184 07-02-2022 15:15:00 7.1 C 5.69 g/m*3 3.8 C 19.3 km/h
185 07-02-2022 15:20:00 6.9 C 5.62 g/m*3 3.37 C 20.9 km/h
186 07-02-2022 15:25:00 7 C 5.66 g/m*3 3.86 C 17.7 km/h
187 07-02-2022 15:30:00 7.1 C 5.69 g/m*3 3.62 C 20.9 km/h
188 07-02-2022 15:35:00 7.1 C 5.69 g/m*3 3.98 C 17.7 km/h
189 07-02-2022 15:40:00 7.1 C 5.69 g/m*3 3.98 C 17.7 km/h
190 07-02-2022 15:45:00 7.1 C 5.69 g/m*3 4.19 C 16.1 km/h
191 07-02-2022 15:50:00 7.2 C 5.57 g/m*3 3.92 C 19.3 km/h
192 07-02-2022 15:55:00 7.2 C 5.57 g/m*3 4.31 C 16.1 km/h
193 07-02-2022 16:00:00 7.2 C 5.57 g/m*3 4.11 C 17.7 km/h
194 07-02-2022 16:05:00 7.2 C 5.49 g/m*3 4.31 C 16.1 km/h
195 07-02-2022 16:10:00 7.1 C 5.46 g/m*3 3.8 C 19.3 km/h
196 07-02-2022 16:15:00 7.1 C 5.46 g/m*3 3.98 C 17.7 km/h
197 07-02-2022 16:20:00 7.1 C 5.38 g/m*3 4.41 C 14.5 km/h
198 07-02-2022 16:25:00 7 C 5.42 g/m*3 4.53 C 12.9 km/h
199 07-02-2022 16:30:00 7 C 5.5 g/m*3 4.53 C 12.9 km/h
200 07-02-2022 16:35:00 6.9 C 5.54 g/m*3 4.99 C 9.7 km/h
Sensor: Nr:Datum:Temp:Abs-Feuchte:Windchill:Wind:
Aussen-T/F 201 07-02-2022 16:40:00 6.8 C 5.43 g/m*3 4.29 C 12.9 km/h
202 07-02-2022 16:45:00 6.8 C 5.51 g/m*3 4.87 C 9.7 km/h
203 07-02-2022 16:50:00 6.7 C 5.47 g/m*3 4.75 C 9.7 km/h
204 07-02-2022 16:55:00 6.7 C 5.47 g/m*3 3.92 C 14.5 km/h
205 07-02-2022 17:00:00 6.7 C 5.47 g/m*3 4.75 C 9.7 km/h
206 07-02-2022 17:05:00 6.7 C 5.55 g/m*3 6.7 C 4.8 km/h
207 07-02-2022 17:10:00 6.6 C 5.51 g/m*3 4.32 C 11.3 km/h
208 07-02-2022 17:15:00 6.6 C 5.51 g/m*3 4.32 C 11.3 km/h
209 07-02-2022 17:20:00 6.6 C 5.51 g/m*3 4.63 C 9.7 km/h
210 07-02-2022 17:25:00 6.6 C 5.51 g/m*3 5.44 C 6.4 km/h
211 07-02-2022 17:30:00 6.5 C 5.55 g/m*3 6.5 C 4.8 km/h
212 07-02-2022 17:35:00 6.4 C 5.59 g/m*3 4.39 C 9.7 km/h
213 07-02-2022 17:40:00 6.3 C 5.55 g/m*3 4.64 C 8.1 km/h
214 07-02-2022 17:45:00 6.2 C 5.52 g/m*3 4.15 C 9.7 km/h
215 07-02-2022 17:50:00 6 C 5.44 g/m*3 4.28 C 8.1 km/h
216 07-02-2022 17:55:00 5.8 C 5.37 g/m*3 5.8 C 4.8 km/h
217 07-02-2022 18:00:00 5.7 C 5.41 g/m*3 4.4 C 6.4 km/h
218 07-02-2022 18:05:00 5.5 C 5.41 g/m*3 4.17 C 6.4 km/h
219 07-02-2022 18:10:00 5.2 C 5.37 g/m*3 5.2 C 4.8 km/h
220 07-02-2022 18:15:00 5 C 5.37 g/m*3 5 C 3.2 km/h
221 07-02-2022 18:20:00 4.8 C 5.36 g/m*3 3.36 C 6.4 km/h
222 07-02-2022 18:25:00 4.7 C 5.33 g/m*3 4.7 C 4.8 km/h
223 07-02-2022 18:30:00 4.5 C 5.32 g/m*3 4.5 C 4.8 km/h
224 07-02-2022 18:35:00 4.3 C 5.25 g/m*3 2.78 C 6.4 km/h
225 07-02-2022 18:40:00 4.2 C 5.28 g/m*3 2.67 C 6.4 km/h
Sensor: Nr:Datum:Temp:Abs-Feuchte:Windchill:Wind:
Aussen-T/F 226 07-02-2022 18:45:00 4 C 5.28 g/m*3 2.44 C 6.4 km/h
227 07-02-2022 18:50:00 3.9 C 5.24 g/m*3 2.32 C 6.4 km/h
228 07-02-2022 18:55:00 3.8 C 5.21 g/m*3 3.8 C 3.2 km/h
229 07-02-2022 19:00:00 3.7 C 5.23 g/m*3 3.7 C 4.8 km/h
230 07-02-2022 19:05:00 3.5 C 5.23 g/m*3 3.5 C 3.2 km/h
231 07-02-2022 19:10:00 3.3 C 5.16 g/m*3 1.11 C 8.1 km/h
232 07-02-2022 19:15:00 3.3 C 5.22 g/m*3 3.3 C 4.8 km/h
233 07-02-2022 19:20:00 3.1 C 5.15 g/m*3 1.4 C 6.4 km/h
234 07-02-2022 19:25:00 3 C 5.11 g/m*3 3 C 4.8 km/h
235 07-02-2022 19:30:00 2.9 C 5.14 g/m*3 2.9 C 0 km/h
236 07-02-2022 19:35:00 2.8 C 5.1 g/m*3 2.8 C 3.2 km/h
237 07-02-2022 19:40:00 2.6 C 5.03 g/m*3 2.6 C 3.2 km/h
238 07-02-2022 19:45:00 2.5 C 5.06 g/m*3 2.5 C 3.2 km/h
239 07-02-2022 19:50:00 2.3 C 4.99 g/m*3 2.3 C 3.2 km/h
240 07-02-2022 19:55:00 2.3 C 4.99 g/m*3 2.3 C 4.8 km/h
241 07-02-2022 20:00:00 2.2 C 4.96 g/m*3 2.2 C 4.8 km/h
242 07-02-2022 20:05:00 2.2 C 5.01 g/m*3 2.2 C 1.6 km/h
243 07-02-2022 20:10:00 2.2 C 5.01 g/m*3 2.2 C 0 km/h
244 07-02-2022 20:15:00 2.2 C 5.01 g/m*3 2.2 C 0 km/h
245 07-02-2022 20:20:00 2.2 C 5.01 g/m*3 2.2 C 0 km/h
246 07-02-2022 20:25:00 2.2 C 5.01 g/m*3 2.2 C 0 km/h
247 07-02-2022 20:30:00 2.2 C 5.07 g/m*3 2.2 C 0 km/h
248 07-02-2022 20:35:00 2.2 C 5.07 g/m*3 2.2 C 1.6 km/h
249 07-02-2022 20:40:00 2.3 C 5.1 g/m*3 2.3 C 4.8 km/h
250 07-02-2022 20:45:00 2.3 C 5.1 g/m*3 2.3 C 1.6 km/h
Sensor: Nr:Datum:Temp:Abs-Feuchte:Windchill:Wind:
Aussen-T/F 251 07-02-2022 20:50:00 2.4 C 5.14 g/m*3 2.4 C 0 km/h
252 07-02-2022 20:55:00 2.5 C 5.17 g/m*3 2.5 C 0 km/h
253 07-02-2022 21:00:00 2.5 C 5.17 g/m*3 2.5 C 1.6 km/h
254 07-02-2022 21:05:00 2.6 C 5.21 g/m*3 2.6 C 0 km/h
255 07-02-2022 21:10:00 2.6 C 5.21 g/m*3 2.6 C 0 km/h
256 07-02-2022 21:15:00 2.6 C 5.15 g/m*3 2.6 C 0 km/h
257 07-02-2022 21:20:00 2.7 C 5.19 g/m*3 2.7 C 0 km/h
258 07-02-2022 21:25:00 2.7 C 5.19 g/m*3 2.7 C 1.6 km/h
259 07-02-2022 21:30:00 2.8 C 5.28 g/m*3 2.8 C 3.2 km/h
260 07-02-2022 21:35:00 2.8 C 5.22 g/m*3 2.8 C 1.6 km/h
261 07-02-2022 21:40:00 2.8 C 5.22 g/m*3 2.8 C 0 km/h
262 07-02-2022 21:45:00 2.8 C 5.22 g/m*3 2.8 C 0 km/h
263 07-02-2022 21:50:00 2.8 C 5.16 g/m*3 2.8 C 3.2 km/h
264 07-02-2022 21:55:00 2.7 C 5.13 g/m*3 2.7 C 1.6 km/h
265 07-02-2022 22:00:00 2.6 C 5.03 g/m*3 0.82 C 6.4 km/h
266 07-02-2022 22:05:00 2.6 C 5.03 g/m*3 2.6 C 3.2 km/h
267 07-02-2022 22:10:00 2.4 C 5.02 g/m*3 2.4 C 3.2 km/h
268 07-02-2022 22:15:00 2.5 C 5.06 g/m*3 -0.26 C 9.7 km/h
269 07-02-2022 22:20:00 2.6 C 5.09 g/m*3 2.6 C 3.2 km/h
270 07-02-2022 22:25:00 2.6 C 5.03 g/m*3 2.6 C 3.2 km/h
271 07-02-2022 22:30:00 2.6 C 5.09 g/m*3 2.6 C 4.8 km/h
272 07-02-2022 22:35:00 2.6 C 5.09 g/m*3 2.6 C 4.8 km/h
273 07-02-2022 22:40:00 2.7 C 5.13 g/m*3 0.94 C 6.4 km/h
274 07-02-2022 22:45:00 2.8 C 5.16 g/m*3 1.05 C 6.4 km/h
275 07-02-2022 22:50:00 2.8 C 5.16 g/m*3 1.05 C 6.4 km/h
Sensor: Nr:Datum:Temp:Abs-Feuchte:Windchill:Wind:
Aussen-T/F 276 07-02-2022 22:55:00 3.1 C 5.27 g/m*3 0.1 C 11.3 km/h
277 07-02-2022 23:00:00 3.3 C 5.28 g/m*3 0.34 C 11.3 km/h
278 07-02-2022 23:05:00 3.6 C 5.32 g/m*3 1.46 C 8.1 km/h
279 07-02-2022 23:10:00 3.8 C 5.33 g/m*3 0.94 C 11.3 km/h
280 07-02-2022 23:15:00 3.9 C 5.37 g/m*3 1.82 C 8.1 km/h
281 07-02-2022 23:20:00 4.1 C 5.38 g/m*3 1 C 12.9 km/h
282 07-02-2022 23:25:00 4.2 C 5.35 g/m*3 1.77 C 9.7 km/h
283 07-02-2022 23:30:00 4.3 C 5.45 g/m*3 1.89 C 9.7 km/h
284 07-02-2022 23:35:00 4.4 C 5.42 g/m*3 1.67 C 11.3 km/h
285 07-02-2022 23:40:00 4.4 C 5.35 g/m*3 1.36 C 12.9 km/h
286 07-02-2022 23:45:00 4.6 C 5.36 g/m*3 1.61 C 12.9 km/h
287 07-02-2022 23:50:00 4.7 C 5.4 g/m*3 1.46 C 14.5 km/h
288 07-02-2022 23:55:00 4.7 C 5.4 g/m*3 2.37 C 9.7 km/h

Legende:
   Min
   Max


Maximal/Minimal-Werte vom 07.02.2022 - 07.02.2022

Sensor Min Max Avg
Temp
(Aussen-T/F)
2.2 °C
07-02-2022  20:00:00
7.2 °C
07-02-2022  14:35:00
4.78 °C
Abs-Feuchte
(Aussen-T/F)
4.96 g/m*3
07-02-2022  20:00:00
6.04 g/m*3
07-02-2022  12:45:00
5.49 g/m*3
Windchill
(Aussen-T/F)
-1.83 C
07-02-2022  04:20:00
6.7 C
07-02-2022  17:05:00
2.34 C

Die Daten stammen von einer Davis Vantage Pro 2 Wetter-Station und werden unter Linux mit der Software wview2wettercgi und aufbereitet. Alle Angaben erfolgen ohne Gewähr für ihre Vollständigkeit oder Richtigkeit.
Kontakt: Rainer Krienke krienke@uni-koblenz.de . Meine Webseiten an der Uni Koblenz oder privat.
Version: $Revision: 0.78 $